createdAt,value
2023-02-13T00:01:10.118Z,100241.03
2023-02-13T00:03:38.285Z,100235.31
2023-02-13T00:06:06.596Z,100228.00
2023-02-13T00:08:34.634Z,100228.16
2023-02-13T00:11:02.676Z,100219.97
2023-02-13T00:13:30.725Z,100209.56
2023-02-13T00:16:01.763Z,100220.38
2023-02-13T00:18:31.664Z,100216.16
2023-02-13T00:21:01.441Z,100223.31
2023-02-13T00:23:31.477Z,100226.78
2023-02-13T00:25:59.539Z,100225.66
2023-02-13T00:28:28.064Z,100222.25
2023-02-13T00:30:56.700Z,100229.31
2023-02-13T00:33:26.248Z,100225.44
2023-02-13T00:36:03.917Z,100221.56
2023-02-13T00:38:32.036Z,100219.44
2023-02-13T00:41:00.114Z,100221.38
2023-02-13T00:43:28.162Z,100222.03
2023-02-13T00:45:58.842Z,100223.13
2023-02-13T00:48:30.444Z,100224.59
2023-02-13T00:50:59.084Z,100204.75
2023-02-13T00:53:28.104Z,100206.03
2023-02-13T00:55:56.280Z,100197.97
2023-02-13T00:58:24.659Z,100202.91
2023-02-13T01:00:53.377Z,100201.84
2023-02-13T01:03:22.771Z,100193.88
2023-02-13T01:05:58.024Z,100189.50
2023-02-13T01:08:28.490Z,100187.81
2023-02-13T01:10:57.541Z,100187.75
2023-02-13T01:13:26.749Z,100179.78
2023-02-13T01:15:55.280Z,100172.66
2023-02-13T01:18:23.397Z,100174.88
2023-02-13T01:21:00.534Z,100180.31
2023-02-13T01:23:32.162Z,100171.06
2023-02-13T01:26:00.745Z,100163.41
2023-02-13T01:28:29.124Z,100156.22
2023-02-13T01:30:59.025Z,100156.13
2023-02-13T01:33:29.426Z,100170.47
2023-02-13T01:36:00.499Z,100159.44
2023-02-13T01:38:29.267Z,100165.75
2023-02-13T01:40:57.508Z,100162.44
2023-02-13T01:43:26.251Z,100156.84
2023-02-13T01:45:57.791Z,100166.16
2023-02-13T01:48:29.039Z,100166.13
2023-02-13T01:51:02.608Z,100157.34
2023-02-13T01:53:33.513Z,100153.66
2023-02-13T01:56:04.445Z,100149.53
2023-02-13T01:58:36.985Z,100142.06
2023-02-13T02:01:07.484Z,100128.44
2023-02-13T02:03:42.394Z,100127.31
2023-02-13T02:06:21.895Z,100136.88
2023-02-13T02:08:51.477Z,100141.19
2023-02-13T02:11:28.174Z,100134.53
2023-02-13T02:13:57.326Z,100127.16
2023-02-13T02:16:34.231Z,100126.97
2023-02-13T02:19:10.755Z,100120.09
2023-02-13T02:22:10.131Z,100117.13
2023-02-13T02:25:15.459Z,100119.16
2023-02-13T02:28:26.189Z,100118.91
2023-02-13T02:31:30.935Z,100119.63
2023-02-13T02:34:14.153Z,100129.75
2023-02-13T02:37:02.939Z,100136.09
2023-02-13T02:39:45.251Z,100122.22
2023-02-13T02:42:23.378Z,100131.59
2023-02-13T02:44:59.208Z,100129.19
2023-02-13T02:47:51.994Z,100131.38
2023-02-13T02:50:34.180Z,100134.31
2023-02-13T02:53:15.485Z,100131.88
2023-02-13T02:55:49.579Z,100129.31
2023-02-13T02:58:40.636Z,100126.25
2023-02-13T03:01:30.714Z,100122.09
2023-02-13T03:04:18.711Z,100120.25
2023-02-13T03:06:53.179Z,100118.81
2023-02-13T03:09:44.235Z,100108.75
2023-02-13T03:12:34.051Z,100111.22
2023-02-13T03:15:02.146Z,100107.00
2023-02-13T03:17:47.687Z,100117.13
2023-02-13T03:20:52.505Z,100114.19
2023-02-13T03:23:31.597Z,100107.25
2023-02-13T03:26:13.777Z,100121.81
2023-02-13T03:29:09.605Z,100121.72
2023-02-13T03:31:45.837Z,100122.97
2023-02-13T03:34:18.291Z,100124.00
2023-02-13T03:37:07.598Z,100132.47
2023-02-13T03:39:49.059Z,100130.44
2023-02-13T03:42:24.744Z,100130.41
2023-02-13T03:45:12.001Z,100132.88
2023-02-13T03:47:41.063Z,100131.69
2023-02-13T03:50:09.643Z,100133.97
2023-02-13T03:52:42.427Z,100143.84
2023-02-13T03:55:33.340Z,100131.88
2023-02-13T03:58:24.011Z,100146.34
2023-02-13T04:00:55.341Z,100134.84
2023-02-13T04:03:28.076Z,100140.69
2023-02-13T04:06:02.822Z,100136.72
2023-02-13T04:08:31.006Z,100137.34
2023-02-13T04:11:08.658Z,100137.31
2023-02-13T04:13:44.533Z,100140.53
2023-02-13T04:16:17.669Z,100134.44
2023-02-13T04:18:46.529Z,100132.66
2023-02-13T04:21:14.562Z,100130.63
2023-02-13T04:23:42.638Z,100127.44
2023-02-13T04:26:18.215Z,100127.53
2023-02-13T04:28:46.550Z,100125.44
2023-02-13T04:31:14.818Z,100122.22
2023-02-13T04:33:42.901Z,100124.66
2023-02-13T04:36:11.250Z,100115.28
2023-02-13T04:38:39.338Z,100124.81
2023-02-13T04:41:07.401Z,100117.97
2023-02-13T04:43:37.435Z,100123.19
2023-02-13T04:46:06.065Z,100122.94
2023-02-13T04:48:34.231Z,100126.94
2023-02-13T04:51:02.258Z,100124.50
2023-02-13T04:53:30.488Z,100122.13
2023-02-13T04:55:58.538Z,100130.41
2023-02-13T04:58:26.672Z,100125.88
2023-02-13T05:00:56.410Z,100117.25
2023-02-13T05:03:24.685Z,100136.59
2023-02-13T05:05:52.718Z,100129.69
2023-02-13T05:08:21.180Z,100138.06
2023-02-13T05:10:49.752Z,100129.41
2023-02-13T05:13:21.694Z,100122.75
2023-02-13T05:15:49.929Z,100118.41
2023-02-13T05:18:19.517Z,100120.75
2023-02-13T05:21:07.690Z,100116.47
2023-02-13T05:23:34.791Z,100125.09
2023-02-13T05:26:02.861Z,100115.75
2023-02-13T05:28:44.829Z,100122.00
2023-02-13T05:31:13.126Z,100130.38
2023-02-13T05:33:42.614Z,100122.59
2023-02-13T05:36:10.805Z,100114.97
2023-02-13T05:38:38.877Z,100114.97
2023-02-13T05:41:06.900Z,100118.38
2023-02-13T05:43:35.058Z,100118.41
2023-02-13T05:46:04.709Z,100122.88
2023-02-13T05:48:33.459Z,100130.63
2023-02-13T05:51:03.003Z,100127.16
2023-02-13T05:53:31.145Z,100133.78
2023-02-13T05:55:59.252Z,100138.56
2023-02-13T05:58:27.370Z,100145.22
2023-02-13T06:00:57.773Z,100156.63
2023-02-13T06:03:26.389Z,100155.00
2023-02-13T06:05:55.250Z,100144.50
2023-02-13T06:08:25.141Z,100136.09
2023-02-13T06:10:53.232Z,100143.28
2023-02-13T06:13:21.305Z,100137.13
2023-02-13T06:15:50.840Z,100138.91
2023-02-13T06:18:19.055Z,100137.81
2023-02-13T06:20:47.191Z,100146.41
2023-02-13T06:23:15.609Z,100137.44
2023-02-13T06:25:45.105Z,100158.88
2023-02-13T06:28:13.189Z,100151.31
2023-02-13T06:30:41.341Z,100155.53
2023-02-13T06:33:09.690Z,100152.53
2023-02-13T06:35:37.739Z,100156.91
2023-02-13T06:38:05.824Z,100158.59
2023-02-13T06:40:33.870Z,100152.97
2023-02-13T06:43:03.320Z,100161.91
2023-02-13T06:45:31.344Z,100157.81
2023-02-13T06:47:59.399Z,100155.59
2023-02-13T06:50:27.708Z,100160.03
2023-02-13T06:52:55.822Z,100156.25
2023-02-13T06:55:23.994Z,100153.09
2023-02-13T06:57:52.030Z,100162.25
2023-02-13T07:00:22.615Z,100159.03
2023-02-13T07:02:50.770Z,100158.91
2023-02-13T07:05:19.047Z,100161.53
2023-02-13T07:07:47.161Z,100166.75
2023-02-13T07:10:16.078Z,100166.66
2023-02-13T07:12:47.311Z,100165.19
2023-02-13T07:15:17.415Z,100170.22
2023-02-13T07:17:46.795Z,100172.19
2023-02-13T07:20:15.413Z,100168.78
2023-02-13T07:22:43.437Z,100172.78
2023-02-13T07:25:11.492Z,100169.56
2023-02-13T07:27:40.639Z,100171.38
2023-02-13T07:30:10.534Z,100167.78
2023-02-13T07:32:38.641Z,100154.53
2023-02-13T07:35:08.456Z,100150.69
2023-02-13T07:37:36.545Z,100143.78
2023-02-13T07:40:06.583Z,100157.28
2023-02-13T07:42:34.937Z,100153.16
2023-02-13T07:45:05.734Z,100152.44
2023-02-13T07:47:34.912Z,100161.81
2023-02-13T07:50:03.161Z,100154.66
2023-02-13T07:52:32.658Z,100158.59
2023-02-13T07:55:00.789Z,100151.50
2023-02-13T07:57:28.804Z,100154.72
2023-02-13T07:59:56.891Z,100145.28
2023-02-13T08:02:25.050Z,100132.88
2023-02-13T08:04:53.155Z,100156.69
2023-02-13T08:07:21.293Z,100131.84
2023-02-13T08:10:08.492Z,100129.91
2023-02-13T08:12:37.829Z,100133.03
2023-02-13T08:15:06.821Z,100125.66
2023-02-13T08:17:34.910Z,100133.06
2023-02-13T08:20:03.103Z,100136.91
2023-02-13T08:22:31.409Z,100136.53
2023-02-13T08:25:00.827Z,100135.00
2023-02-13T08:27:30.251Z,100137.31
2023-02-13T08:29:59.149Z,100145.13
2023-02-13T08:32:27.395Z,100144.31
2023-02-13T08:34:55.523Z,100141.16
2023-02-13T08:37:23.851Z,100136.44
2023-02-13T08:39:51.973Z,100135.34
2023-02-13T08:42:21.411Z,100152.16
2023-02-13T08:44:49.694Z,100134.63
2023-02-13T08:47:17.750Z,100135.81
2023-02-13T08:49:45.910Z,100145.94
2023-02-13T08:52:14.003Z,100131.47
2023-02-13T08:54:42.241Z,100141.66
2023-02-13T08:57:10.304Z,100139.31
2023-02-13T08:59:39.740Z,100143.19
2023-02-13T09:02:07.921Z,100129.16
2023-02-13T09:04:36.019Z,100126.41
2023-02-13T09:07:04.066Z,100115.09
2023-02-13T09:09:32.113Z,100129.56
2023-02-13T09:12:01.137Z,100142.84
2023-02-13T09:14:29.202Z,100127.63
2023-02-13T09:16:58.635Z,100132.28
2023-02-13T09:19:26.720Z,100136.09
2023-02-13T09:21:54.773Z,100124.75
2023-02-13T09:24:22.773Z,100126.03
2023-02-13T09:26:50.870Z,100127.31
2023-02-13T09:29:19.076Z,100123.06
2023-02-13T09:31:47.264Z,100128.63
2023-02-13T09:34:16.791Z,100129.44
2023-02-13T09:36:44.898Z,100124.03
2023-02-13T09:39:12.987Z,100120.91
2023-02-13T09:41:44.004Z,100136.13
2023-02-13T09:44:32.099Z,100141.53
2023-02-13T09:47:02.042Z,100136.94
2023-02-13T09:49:33.880Z,100135.31
2023-02-13T09:52:02.673Z,100130.97
2023-02-13T09:54:33.998Z,100146.16
2023-02-13T09:57:08.967Z,100143.91
2023-02-13T09:59:46.485Z,100154.13
2023-02-13T10:02:29.785Z,100130.59
2023-02-13T10:05:11.137Z,100136.19
2023-02-13T10:07:46.852Z,100126.19
2023-02-13T10:10:24.456Z,100127.38
2023-02-13T10:13:01.947Z,100129.56
2023-02-13T10:15:36.988Z,100141.28
2023-02-13T10:18:07.021Z,100102.97
2023-02-13T10:20:40.990Z,100113.09
2023-02-13T10:23:20.817Z,100110.81
2023-02-13T10:25:56.087Z,100108.09
2023-02-13T10:28:32.200Z,100111.56
2023-02-13T10:31:06.592Z,100099.44
2023-02-13T10:33:42.233Z,100102.13
2023-02-13T10:36:19.779Z,100092.41
2023-02-13T10:38:57.956Z,100072.38
2023-02-13T10:41:31.890Z,100067.69
2023-02-13T10:44:25.081Z,100097.03
2023-02-13T10:47:03.768Z,100081.41
2023-02-13T10:49:50.362Z,100077.31
2023-02-13T10:52:33.104Z,100074.69
2023-02-13T10:55:19.467Z,100078.19
2023-02-13T10:58:05.890Z,100069.22
2023-02-13T11:00:40.410Z,100074.66
2023-02-13T11:03:19.857Z,100070.25
2023-02-13T11:05:48.192Z,100059.78
2023-02-13T11:08:22.348Z,100059.16
2023-02-13T11:10:50.655Z,100061.63
2023-02-13T11:13:21.231Z,100058.28
2023-02-13T11:16:00.880Z,100066.03
2023-02-13T11:18:31.420Z,100055.88
2023-02-13T11:21:08.996Z,100067.00
2023-02-13T11:23:45.628Z,100058.00
2023-02-13T11:26:22.233Z,100067.88
2023-02-13T11:28:55.255Z,100061.44
2023-02-13T11:31:27.926Z,100061.22
2023-02-13T11:33:58.960Z,100082.53
2023-02-13T11:36:30.333Z,100084.72
2023-02-13T11:39:01.965Z,100078.38
2023-02-13T11:41:31.498Z,100072.78
2023-02-13T11:44:02.412Z,100082.88
2023-02-13T11:46:32.421Z,100077.03
2023-02-13T11:49:03.146Z,100074.19
2023-02-13T11:51:44.139Z,100075.94
2023-02-13T11:54:28.954Z,100071.66
2023-02-13T11:57:04.707Z,100068.09
2023-02-13T11:59:40.296Z,100057.75
2023-02-13T12:02:17.944Z,100063.03
2023-02-13T12:04:46.936Z,100064.00
2023-02-13T12:07:20.153Z,100062.53
2023-02-13T12:09:54.177Z,100043.88
2023-02-13T12:12:28.957Z,100040.34
2023-02-13T12:14:58.382Z,100042.47
2023-02-13T12:17:32.469Z,100038.00
2023-02-13T12:20:02.357Z,100036.28
2023-02-13T12:22:43.461Z,100032.53
2023-02-13T12:25:26.978Z,100031.19
2023-02-13T12:28:16.474Z,100028.94
2023-02-13T12:31:03.448Z,100043.63
2023-02-13T12:33:45.281Z,100024.38
2023-02-13T12:36:18.188Z,100011.94
2023-02-13T12:38:59.629Z,100010.13
2023-02-13T12:41:38.420Z,100013.56
2023-02-13T12:44:23.482Z,100018.50
2023-02-13T12:47:03.158Z,100013.66
2023-02-13T12:49:44.567Z,100010.28
2023-02-13T12:52:33.303Z,100009.25
2023-02-13T12:55:17.826Z,100004.00
2023-02-13T12:58:00.802Z,100016.22
2023-02-13T13:00:41.936Z,100017.75
2023-02-13T13:03:31.950Z,100028.06
2023-02-13T13:06:19.812Z,100029.31
2023-02-13T13:09:07.640Z,100029.97
2023-02-13T13:11:49.536Z,100010.25
2023-02-13T13:14:26.865Z,100017.63
2023-02-13T13:17:02.804Z,100010.91
2023-02-13T13:19:41.682Z,100028.16
2023-02-13T13:22:13.547Z,100018.03
2023-02-13T13:24:57.914Z,100012.88
2023-02-13T13:27:29.590Z,100011.72
2023-02-13T13:30:02.640Z,99997.19
2023-02-13T13:32:32.051Z,99999.25
2023-02-13T13:35:01.100Z,100008.59
2023-02-13T13:37:36.478Z,100014.16
2023-02-13T13:40:23.014Z,100011.34
2023-02-13T13:42:54.788Z,100003.94
2023-02-13T13:45:38.316Z,100006.38
2023-02-13T13:48:38.267Z,100003.97
2023-02-13T13:51:08.355Z,100001.50
2023-02-13T13:53:38.485Z,100002.75
2023-02-13T13:56:09.791Z,100009.06
2023-02-13T13:58:41.173Z,100004.16
2023-02-13T14:01:37.509Z,99991.84
2023-02-13T14:04:41.770Z,99988.09
2023-02-13T14:07:22.945Z,99986.25
2023-02-13T14:09:51.120Z,99984.75
2023-02-13T14:12:37.872Z,99986.88
2023-02-13T14:15:06.628Z,99993.41
2023-02-13T14:17:57.917Z,99985.69
2023-02-13T14:20:37.087Z,99970.88
2023-02-13T14:23:15.767Z,99960.97
2023-02-13T14:25:44.216Z,99971.38
2023-02-13T14:28:22.045Z,99961.03
2023-02-13T14:30:51.400Z,99967.22
2023-02-13T14:33:31.216Z,99959.91
2023-02-13T14:36:05.661Z,99961.72
2023-02-13T14:38:35.555Z,99943.88
2023-02-13T14:41:04.198Z,99950.94
2023-02-13T14:43:49.903Z,99937.47
2023-02-13T14:46:26.914Z,99939.59
2023-02-13T14:49:03.784Z,99933.25
2023-02-13T14:51:37.271Z,99939.19
2023-02-13T14:54:10.935Z,99927.75
2023-02-13T14:56:40.373Z,99930.97
2023-02-13T14:59:15.480Z,99936.91
2023-02-13T15:01:51.195Z,99941.06
2023-02-13T15:04:27.385Z,99926.00
2023-02-13T15:06:56.990Z,99929.28
2023-02-13T15:09:32.962Z,99912.03
2023-02-13T15:12:01.793Z,99910.13
2023-02-13T15:14:34.864Z,99910.56
2023-02-13T15:17:17.007Z,99923.88
2023-02-13T15:19:50.220Z,99916.88
2023-02-13T15:22:21.396Z,99918.03
2023-02-13T15:24:51.077Z,99927.34
2023-02-13T15:27:26.447Z,99936.25
2023-02-13T15:29:56.429Z,99940.22
2023-02-13T15:32:30.048Z,99937.44
2023-02-13T15:34:59.716Z,99937.22
2023-02-13T15:37:30.941Z,99930.59
2023-02-13T15:40:17.858Z,99943.56
2023-02-13T15:42:46.658Z,99942.06
2023-02-13T15:45:17.634Z,99957.38
2023-02-13T15:47:46.624Z,99936.03
2023-02-13T15:50:23.247Z,99947.84
2023-02-13T15:52:52.962Z,99959.44
2023-02-13T15:55:23.984Z,99958.03
2023-02-13T15:57:53.717Z,99948.44
2023-02-13T16:00:26.302Z,99942.03
2023-02-13T16:02:56.146Z,99941.84
2023-02-13T16:05:39.519Z,99944.03
2023-02-13T16:08:28.445Z,99954.13
2023-02-13T16:11:26.209Z,99950.59
2023-02-13T16:14:06.413Z,99973.69
2023-02-13T16:16:37.900Z,99971.91
2023-02-13T16:19:06.265Z,99955.75
2023-02-13T16:21:51.911Z,99962.97
2023-02-13T16:24:22.356Z,99964.91
2023-02-13T16:26:50.952Z,99965.66
2023-02-13T16:29:22.137Z,99958.72
2023-02-13T16:31:51.741Z,99966.56
2023-02-13T16:34:27.201Z,99960.25
2023-02-13T16:36:58.102Z,99968.31
2023-02-13T16:39:30.206Z,99965.47
2023-02-13T16:41:59.137Z,99989.31
2023-02-13T16:44:30.101Z,99995.53
2023-02-13T16:47:01.607Z,99992.34
2023-02-13T16:49:31.915Z,99980.59
2023-02-13T16:52:11.525Z,99972.53
2023-02-13T16:54:50.072Z,99954.91
2023-02-13T16:57:22.194Z,99959.75
2023-02-13T17:00:02.686Z,99938.38
2023-02-13T17:02:33.006Z,99948.06
2023-02-13T17:05:17.357Z,99950.69
2023-02-13T17:07:50.571Z,99959.31
2023-02-13T17:10:26.367Z,99945.63
2023-02-13T17:12:56.434Z,99939.53
2023-02-13T17:15:26.773Z,99926.69
2023-02-13T17:17:55.134Z,99924.69
2023-02-13T17:20:27.047Z,99928.22
2023-02-13T17:22:58.083Z,99922.81
2023-02-13T17:25:28.147Z,99930.84
2023-02-13T17:27:58.054Z,99939.44
2023-02-13T17:30:28.325Z,99930.59
2023-02-13T17:32:59.859Z,99939.03
2023-02-13T17:35:28.230Z,99954.69
2023-02-13T17:37:58.180Z,99944.63
2023-02-13T17:40:29.766Z,99951.94
2023-02-13T17:42:59.632Z,99949.25
2023-02-13T17:45:30.298Z,99952.38
2023-02-13T17:47:58.867Z,99928.28
2023-02-13T17:50:28.223Z,99943.44
2023-02-13T17:52:58.654Z,99941.84
2023-02-13T17:55:29.487Z,99952.00
2023-02-13T17:57:58.968Z,99963.63
2023-02-13T18:00:29.447Z,99965.19
2023-02-13T18:02:59.282Z,99976.91
2023-02-13T18:05:28.221Z,99971.13
2023-02-13T18:07:57.684Z,99966.78
2023-02-13T18:10:28.101Z,99959.44
2023-02-13T18:12:58.456Z,99952.78
2023-02-13T18:15:26.604Z,99944.59
2023-02-13T18:17:54.634Z,99948.56
2023-02-13T18:20:23.207Z,99953.63
2023-02-13T18:22:51.590Z,99959.84
2023-02-13T18:25:22.009Z,99969.56
2023-02-13T18:27:50.621Z,99962.19
2023-02-13T18:30:21.557Z,99969.97
2023-02-13T18:32:52.442Z,99980.81
2023-02-13T18:35:21.214Z,99983.78
2023-02-13T18:37:49.633Z,99970.56
2023-02-13T18:40:18.285Z,99983.56
2023-02-13T18:42:48.741Z,99984.78
2023-02-13T18:45:18.430Z,99983.97
2023-02-13T18:47:46.501Z,99984.28
2023-02-13T18:50:14.754Z,99981.66
2023-02-13T18:52:42.916Z,99994.44
2023-02-13T18:55:11.043Z,99990.66
2023-02-13T18:57:43.443Z,100002.72
2023-02-13T19:00:15.008Z,100001.56
2023-02-13T19:02:43.165Z,100008.16
2023-02-13T19:05:11.220Z,100009.25
2023-02-13T19:07:39.404Z,100023.75
2023-02-13T19:10:08.237Z,100030.31
2023-02-13T19:12:36.391Z,100026.13
2023-02-13T19:15:05.094Z,100033.09
2023-02-13T19:17:35.438Z,100028.44
2023-02-13T19:20:03.491Z,100041.78
2023-02-13T19:22:31.561Z,100030.84
2023-02-13T19:24:59.589Z,100022.22
2023-02-13T19:27:27.703Z,100030.06
2023-02-13T19:29:55.819Z,100031.25
2023-02-13T19:32:23.960Z,100013.66
2023-02-13T19:34:53.461Z,100016.41
2023-02-13T19:37:21.511Z,100023.41
2023-02-13T19:39:49.548Z,100028.50
2023-02-13T19:42:17.777Z,100022.63
2023-02-13T19:44:45.814Z,100039.06
2023-02-13T19:47:13.848Z,100018.75
2023-02-13T19:49:41.863Z,100033.56
2023-02-13T19:52:11.374Z,100027.72
2023-02-13T19:54:40.170Z,100042.16
2023-02-13T19:57:08.398Z,100055.44
2023-02-13T19:59:36.439Z,100043.72
2023-02-13T20:02:04.736Z,100037.81
2023-02-13T20:04:36.795Z,100049.16
2023-02-13T20:07:05.788Z,100052.50
2023-02-13T20:09:37.759Z,100054.16
2023-02-13T20:12:06.040Z,100054.97
2023-02-13T20:14:34.741Z,100057.63
2023-02-13T20:17:03.082Z,100063.59
2023-02-13T20:19:31.141Z,100065.81
2023-02-13T20:22:00.446Z,100062.97
2023-02-13T20:24:28.559Z,100059.69
2023-02-13T20:26:58.968Z,100058.88
2023-02-13T20:29:27.055Z,100053.84
2023-02-13T20:31:55.255Z,100059.31
2023-02-13T20:34:23.458Z,100062.41
2023-02-13T20:36:51.497Z,100076.09
2023-02-13T20:39:21.370Z,100073.31
2023-02-13T20:41:50.549Z,100060.09
2023-02-13T20:44:21.034Z,100067.91
2023-02-13T20:46:49.198Z,100066.34
2023-02-13T20:49:21.834Z,100062.06
2023-02-13T20:51:50.164Z,100053.06
2023-02-13T20:54:18.266Z,100056.59
2023-02-13T20:56:47.654Z,100050.38
2023-02-13T20:59:15.748Z,100034.75
2023-02-13T21:01:46.790Z,100044.09
2023-02-13T21:04:19.238Z,100049.56
2023-02-13T21:06:48.112Z,100042.94
2023-02-13T21:09:16.764Z,100037.84
2023-02-13T21:11:45.982Z,100033.56
2023-02-13T21:14:15.100Z,100041.00
2023-02-13T21:16:43.544Z,100035.13
2023-02-13T21:19:16.071Z,100028.13
2023-02-13T21:21:45.086Z,100027.69
2023-02-13T21:24:15.598Z,100041.38
2023-02-13T21:26:44.450Z,100036.31
2023-02-13T21:29:12.756Z,100025.00
2023-02-13T21:31:47.445Z,100029.66
2023-02-13T21:34:18.164Z,100029.28
2023-02-13T21:36:47.209Z,100024.22
2023-02-13T21:39:16.074Z,100021.50
2023-02-13T21:41:45.635Z,100032.41
2023-02-13T21:44:14.704Z,100035.13
2023-02-13T21:46:44.200Z,100038.16
2023-02-13T21:49:14.237Z,100035.47
2023-02-13T21:51:44.242Z,100035.88
2023-02-13T21:54:12.968Z,100038.19
2023-02-13T21:56:43.599Z,100034.94
2023-02-13T21:59:16.309Z,100036.53
2023-02-13T22:01:50.145Z,100032.47
2023-02-13T22:04:19.040Z,100026.63
2023-02-13T22:06:51.267Z,100035.34
2023-02-13T22:09:21.766Z,100032.88
2023-02-13T22:11:51.919Z,100021.75
2023-02-13T22:14:21.677Z,100044.69
2023-02-13T22:16:51.904Z,100041.28
2023-02-13T22:19:20.668Z,100039.69
2023-02-13T22:21:50.504Z,100041.63
2023-02-13T22:24:18.545Z,100044.47
2023-02-13T22:26:46.701Z,100048.31
2023-02-13T22:29:17.940Z,100044.41
2023-02-13T22:31:46.209Z,100025.75
2023-02-13T22:34:14.790Z,100027.31
2023-02-13T22:36:43.168Z,100025.00
2023-02-13T22:39:13.555Z,100019.91
2023-02-13T22:41:44.578Z,100016.78
2023-02-13T22:44:12.742Z,100019.16
2023-02-13T22:46:40.949Z,100030.84
2023-02-13T22:49:09.098Z,100017.94
2023-02-13T22:51:37.560Z,100014.44
2023-02-13T22:54:06.675Z,100006.28
2023-02-13T22:56:36.243Z,100010.19
2023-02-13T22:59:04.392Z,100014.84
2023-02-13T23:01:32.416Z,100012.13
2023-02-13T23:04:00.821Z,100022.66
2023-02-13T23:06:28.995Z,100026.16
2023-02-13T23:08:57.941Z,100025.00
2023-02-13T23:11:46.129Z,100014.44
2023-02-13T23:14:16.775Z,100013.66
2023-02-13T23:17:03.085Z,100017.94
2023-02-13T23:19:31.468Z,100017.59
2023-02-13T23:21:59.797Z,100012.13
2023-02-13T23:24:28.142Z,100007.84
2023-02-13T23:26:56.228Z,100018.38
2023-02-13T23:29:25.658Z,100018.75
2023-02-13T23:31:54.183Z,100021.50
2023-02-13T23:34:22.854Z,100007.44
2023-02-13T23:36:53.391Z,100009.38
2023-02-13T23:39:21.699Z,100004.28
2023-02-13T23:41:49.736Z,99991.06
2023-02-13T23:44:17.924Z,100003.94
2023-02-13T23:46:47.466Z,100003.53
2023-02-13T23:49:15.610Z,100008.22
2023-02-13T23:51:43.691Z,99994.97
2023-02-13T23:54:15.656Z,99989.50
2023-02-13T23:56:43.885Z,99984.41
2023-02-13T23:59:12.100Z,100000.81
